sensor_id;sensor_type;location;lat;lon;timestamp;P1;durP1;ratioP1;P2;durP2;ratioP2
13455;SDS011;6800;50.940;6.940;2023-11-22T00:02:43;14.80;;;13.40;;
13455;SDS011;6800;50.940;6.940;2023-11-22T00:06:45;13.40;;;12.10;;
13455;SDS011;6800;50.940;6.940;2023-11-22T00:10:46;13.50;;;12.30;;
13455;SDS011;6800;50.940;6.940;2023-11-22T00:14:49;15.13;;;13.13;;
13455;SDS011;6800;50.940;6.940;2023-11-22T00:18:50;13.40;;;12.10;;
13455;SDS011;6800;50.940;6.940;2023-11-22T00:22:51;13.80;;;12.50;;
13455;SDS011;6800;50.940;6.940;2023-11-22T00:26:53;14.27;;;12.87;;
13455;SDS011;6800;50.940;6.940;2023-11-22T00:30:54;14.57;;;12.90;;
13455;SDS011;6800;50.940;6.940;2023-11-22T00:34:56;13.30;;;12.00;;
13455;SDS011;6800;50.940;6.940;2023-11-22T00:38:58;14.27;;;12.87;;
13455;SDS011;6800;50.940;6.940;2023-11-22T00:43:00;15.30;;;13.70;;
13455;SDS011;6800;50.940;6.940;2023-11-22T00:47:02;14.77;;;13.33;;
13455;SDS011;6800;50.940;6.940;2023-11-22T00:51:03;14.53;;;13.13;;
13455;SDS011;6800;50.940;6.940;2023-11-22T00:55:13;15.03;;;13.43;;
13455;SDS011;6800;50.940;6.940;2023-11-22T00:59:14;15.37;;;13.00;;
13455;SDS011;6800;50.940;6.940;2023-11-22T01:07:28;14.23;;;12.70;;
13455;SDS011;6800;50.940;6.940;2023-11-22T01:11:30;14.97;;;13.40;;
13455;SDS011;6800;50.940;6.940;2023-11-22T01:15:31;15.83;;;13.23;;
13455;SDS011;6800;50.940;6.940;2023-11-22T01:19:33;14.77;;;13.27;;
13455;SDS011;6800;50.940;6.940;2023-11-22T01:23:34;15.57;;;13.97;;
13455;SDS011;6800;50.940;6.940;2023-11-22T01:27:36;17.73;;;15.00;;
13455;SDS011;6800;50.940;6.940;2023-11-22T01:31:38;15.73;;;13.73;;
13455;SDS011;6800;50.940;6.940;2023-11-22T01:35:40;16.03;;;14.37;;
13455;SDS011;6800;50.940;6.940;2023-11-22T01:39:42;15.00;;;13.50;;
13455;SDS011;6800;50.940;6.940;2023-11-22T01:43:44;15.33;;;13.83;;
13455;SDS011;6800;50.940;6.940;2023-11-22T01:47:45;15.67;;;14.07;;
13455;SDS011;6800;50.940;6.940;2023-11-22T01:51:47;15.30;;;13.33;;
13455;SDS011;6800;50.940;6.940;2023-11-22T01:55:49;14.23;;;12.83;;
13455;SDS011;6800;50.940;6.940;2023-11-22T01:59:51;16.13;;;14.43;;
13455;SDS011;6800;50.940;6.940;2023-11-22T02:03:52;15.23;;;13.60;;
13455;SDS011;6800;50.940;6.940;2023-11-22T02:07:54;15.83;;;13.30;;
13455;SDS011;6800;50.940;6.940;2023-11-22T02:11:57;15.70;;;14.20;;
13455;SDS011;6800;50.940;6.940;2023-11-22T02:15:58;15.67;;;14.07;;
13455;SDS011;6800;50.940;6.940;2023-11-22T02:20:02;16.00;;;13.70;;
13455;SDS011;6800;50.940;6.940;2023-11-22T02:24:07;16.60;;;14.63;;
13455;SDS011;6800;50.940;6.940;2023-11-22T02:28:09;15.87;;;14.27;;
13455;SDS011;6800;50.940;6.940;2023-11-22T02:32:10;14.60;;;13.23;;
13455;SDS011;6800;50.940;6.940;2023-11-22T02:36:12;15.47;;;13.97;;
13455;SDS011;6800;50.940;6.940;2023-11-22T02:40:18;15.37;;;13.83;;
13455;SDS011;6800;50.940;6.940;2023-11-22T02:44:20;15.07;;;13.63;;
13455;SDS011;6800;50.940;6.940;2023-11-22T02:48:22;15.30;;;13.70;;
13455;SDS011;6800;50.940;6.940;2023-11-22T02:52:24;14.77;;;13.27;;
13455;SDS011;6800;50.940;6.940;2023-11-22T02:56:26;14.77;;;13.37;;
13455;SDS011;6800;50.940;6.940;2023-11-22T03:00:28;15.23;;;13.63;;
13455;SDS011;6800;50.940;6.940;2023-11-22T03:04:30;15.37;;;13.87;;
13455;SDS011;6800;50.940;6.940;2023-11-22T03:08:31;15.00;;;13.43;;
13455;SDS011;6800;50.940;6.940;2023-11-22T03:12:34;15.07;;;13.57;;
13455;SDS011;6800;50.940;6.940;2023-11-22T03:16:38;15.23;;;13.73;;
13455;SDS011;6800;50.940;6.940;2023-11-22T03:20:40;15.23;;;13.73;;
13455;SDS011;6800;50.940;6.940;2023-11-22T03:24:43;15.00;;;13.70;;
13455;SDS011;6800;50.940;6.940;2023-11-22T03:28:44;14.43;;;12.93;;
13455;SDS011;6800;50.940;6.940;2023-11-22T03:32:46;15.07;;;13.53;;
13455;SDS011;6800;50.940;6.940;2023-11-22T03:36:47;14.13;;;12.73;;
13455;SDS011;6800;50.940;6.940;2023-11-22T03:40:50;14.10;;;12.80;;
13455;SDS011;6800;50.940;6.940;2023-11-22T03:44:51;14.73;;;12.93;;
13455;SDS011;6800;50.940;6.940;2023-11-22T03:48:52;14.77;;;13.00;;
13455;SDS011;6800;50.940;6.940;2023-11-22T03:52:54;14.10;;;12.67;;
13455;SDS011;6800;50.940;6.940;2023-11-22T03:56:55;15.40;;;13.60;;
13455;SDS011;6800;50.940;6.940;2023-11-22T04:00:56;14.90;;;13.50;;
13455;SDS011;6800;50.940;6.940;2023-11-22T04:04:59;15.23;;;13.73;;
13455;SDS011;6800;50.940;6.940;2023-11-22T04:09:01;16.13;;;14.53;;
13455;SDS011;6800;50.940;6.940;2023-11-22T04:13:02;22.20;;;16.60;;
13455;SDS011;6800;50.940;6.940;2023-11-22T04:17:04;18.03;;;15.17;;
13455;SDS011;6800;50.940;6.940;2023-11-22T04:21:06;18.50;;;16.60;;
13455;SDS011;6800;50.940;6.940;2023-11-22T04:25:08;19.17;;;16.90;;
13455;SDS011;6800;50.940;6.940;2023-11-22T04:29:09;18.30;;;16.40;;
13455;SDS011;6800;50.940;6.940;2023-11-22T04:33:11;19.30;;;17.23;;
13455;SDS011;6800;50.940;6.940;2023-11-22T04:37:13;19.50;;;16.97;;
13455;SDS011;6800;50.940;6.940;2023-11-22T04:41:14;20.00;;;17.53;;
13455;SDS011;6800;50.940;6.940;2023-11-22T04:45:15;19.77;;;17.77;;
13455;SDS011;6800;50.940;6.940;2023-11-22T04:49:17;20.53;;;17.60;;
13455;SDS011;6800;50.940;6.940;2023-11-22T04:53:18;19.53;;;17.50;;
13455;SDS011;6800;50.940;6.940;2023-11-22T04:57:20;19.23;;;17.37;;
13455;SDS011;6800;50.940;6.940;2023-11-22T05:01:21;21.03;;;17.23;;
13455;SDS011;6800;50.940;6.940;2023-11-22T05:05:25;20.00;;;17.50;;
13455;SDS011;6800;50.940;6.940;2023-11-22T05:09:26;20.07;;;17.70;;
13455;SDS011;6800;50.940;6.940;2023-11-22T05:13:27;20.27;;;18.17;;
13455;SDS011;6800;50.940;6.940;2023-11-22T05:17:29;25.60;;;18.83;;
13455;SDS011;6800;50.940;6.940;2023-11-22T05:21:31;20.53;;;17.40;;
13455;SDS011;6800;50.940;6.940;2023-11-22T05:25:33;20.90;;;18.60;;
13455;SDS011;6800;50.940;6.940;2023-11-22T05:29:34;21.27;;;18.90;;
13455;SDS011;6800;50.940;6.940;2023-11-22T05:33:47;21.90;;;19.53;;
13455;SDS011;6800;50.940;6.940;2023-11-22T05:37:49;19.83;;;17.83;;
13455;SDS011;6800;50.940;6.940;2023-11-22T05:41:50;20.00;;;17.87;;
13455;SDS011;6800;50.940;6.940;2023-11-22T05:45:52;17.97;;;16.07;;
13455;SDS011;6800;50.940;6.940;2023-11-22T05:49:54;16.97;;;15.23;;
13455;SDS011;6800;50.940;6.940;2023-11-22T05:53:56;15.70;;;14.03;;
13455;SDS011;6800;50.940;6.940;2023-11-22T05:57:57;17.07;;;14.50;;
13455;SDS011;6800;50.940;6.940;2023-11-22T06:01:58;13.40;;;12.00;;
13455;SDS011;6800;50.940;6.940;2023-11-22T06:06:00;13.63;;;12.33;;
13455;SDS011;6800;50.940;6.940;2023-11-22T06:10:01;13.93;;;12.43;;
13455;SDS011;6800;50.940;6.940;2023-11-22T06:14:03;13.50;;;12.20;;
13455;SDS011;6800;50.940;6.940;2023-11-22T06:18:05;12.50;;;11.20;;
13455;SDS011;6800;50.940;6.940;2023-11-22T06:22:07;12.63;;;11.33;;
13455;SDS011;6800;50.940;6.940;2023-11-22T06:26:08;12.47;;;11.27;;
13455;SDS011;6800;50.940;6.940;2023-11-22T06:30:10;15.77;;;12.47;;
13455;SDS011;6800;50.940;6.940;2023-11-22T06:34:12;17.33;;;11.30;;
13455;SDS011;6800;50.940;6.940;2023-11-22T06:38:13;15.70;;;11.20;;
13455;SDS011;6800;50.940;6.940;2023-11-22T06:42:15;13.27;;;10.53;;
13455;SDS011;6800;50.940;6.940;2023-11-22T06:46:16;11.63;;;10.43;;
13455;SDS011;6800;50.940;6.940;2023-11-22T06:50:18;29.67;;;10.50;;
13455;SDS011;6800;50.940;6.940;2023-11-22T06:54:19;27.23;;;9.60;;
13455;SDS011;6800;50.940;6.940;2023-11-22T06:58:21;11.27;;;8.13;;
13455;SDS011;6800;50.940;6.940;2023-11-22T07:02:23;9.53;;;8.63;;
13455;SDS011;6800;50.940;6.940;2023-11-22T07:06:24;9.17;;;8.27;;
13455;SDS011;6800;50.940;6.940;2023-11-22T07:10:27;11.80;;;8.80;;
13455;SDS011;6800;50.940;6.940;2023-11-22T07:14:28;10.03;;;9.13;;
13455;SDS011;6800;50.940;6.940;2023-11-22T07:18:30;9.50;;;8.50;;
13455;SDS011;6800;50.940;6.940;2023-11-22T07:22:33;10.23;;;9.20;;
13455;SDS011;6800;50.940;6.940;2023-11-22T07:26:34;9.80;;;8.90;;
13455;SDS011;6800;50.940;6.940;2023-11-22T07:30:36;9.80;;;8.90;;
13455;SDS011;6800;50.940;6.940;2023-11-22T07:34:40;10.00;;;7.90;;
13455;SDS011;6800;50.940;6.940;2023-11-22T07:38:42;11.20;;;9.07;;
13455;SDS011;6800;50.940;6.940;2023-11-22T07:52:48;13.67;;;9.17;;
13455;SDS011;6800;50.940;6.940;2023-11-22T07:56:49;13.90;;;10.20;;
13455;SDS011;6800;50.940;6.940;2023-11-22T08:00:51;10.30;;;9.30;;
13455;SDS011;6800;50.940;6.940;2023-11-22T08:04:53;13.00;;;10.37;;
13455;SDS011;6800;50.940;6.940;2023-11-22T08:08:54;11.67;;;10.20;;
13455;SDS011;6800;50.940;6.940;2023-11-22T08:12:55;16.70;;;10.07;;
13455;SDS011;6800;50.940;6.940;2023-11-22T08:16:57;10.87;;;9.50;;
13455;SDS011;6800;50.940;6.940;2023-11-22T08:20:58;21.33;;;9.53;;
13455;SDS011;6800;50.940;6.940;2023-11-22T08:25:00;19.43;;;10.07;;
13455;SDS011;6800;50.940;6.940;2023-11-22T08:29:01;9.10;;;8.17;;
13455;SDS011;6800;50.940;6.940;2023-11-22T08:33:02;12.00;;;8.50;;
13455;SDS011;6800;50.940;6.940;2023-11-22T08:37:04;10.87;;;7.73;;
13455;SDS011;6800;50.940;6.940;2023-11-22T08:41:05;10.33;;;8.73;;
13455;SDS011;6800;50.940;6.940;2023-11-22T08:45:08;19.93;;;7.30;;
13455;SDS011;6800;50.940;6.940;2023-11-22T08:49:09;6.40;;;5.87;;
13455;SDS011;6800;50.940;6.940;2023-11-22T08:53:12;13.00;;;6.10;;
13455;SDS011;6800;50.940;6.940;2023-11-22T08:57:14;10.87;;;6.90;;
13455;SDS011;6800;50.940;6.940;2023-11-22T09:01:16;6.67;;;5.93;;
13455;SDS011;6800;50.940;6.940;2023-11-22T09:05:19;8.93;;;6.00;;
13455;SDS011;6800;50.940;6.940;2023-11-22T09:09:22;8.70;;;5.57;;
13455;SDS011;6800;50.940;6.940;2023-11-22T09:13:28;7.33;;;5.47;;
13455;SDS011;6800;50.940;6.940;2023-11-22T09:17:31;6.43;;;5.63;;
13455;SDS011;6800;50.940;6.940;2023-11-22T09:21:32;3.77;;;3.47;;
13455;SDS011;6800;50.940;6.940;2023-11-22T09:25:34;6.77;;;6.07;;
13455;SDS011;6800;50.940;6.940;2023-11-22T09:29:36;6.80;;;6.10;;
13455;SDS011;6800;50.940;6.940;2023-11-22T09:33:38;9.37;;;6.00;;
13455;SDS011;6800;50.940;6.940;2023-11-22T09:37:40;7.70;;;6.03;;
13455;SDS011;6800;50.940;6.940;2023-11-22T09:41:43;5.93;;;5.30;;
13455;SDS011;6800;50.940;6.940;2023-11-22T09:45:47;5.10;;;4.60;;
13455;SDS011;6800;50.940;6.940;2023-11-22T09:49:56;4.87;;;4.47;;
13455;SDS011;6800;50.940;6.940;2023-11-22T09:54:06;10.80;;;4.83;;
13455;SDS011;6800;50.940;6.940;2023-11-22T09:58:11;4.27;;;3.93;;
13455;SDS011;6800;50.940;6.940;2023-11-22T10:02:14;5.07;;;4.57;;
13455;SDS011;6800;50.940;6.940;2023-11-22T10:06:17;7.43;;;5.60;;
13455;SDS011;6800;50.940;6.940;2023-11-22T10:10:18;13.03;;;5.37;;
13455;SDS011;6800;50.940;6.940;2023-11-22T10:14:23;5.70;;;3.80;;
13455;SDS011;6800;50.940;6.940;2023-11-22T10:18:28;12.17;;;3.57;;
13455;SDS011;6800;50.940;6.940;2023-11-22T10:22:29;3.03;;;2.60;;
13455;SDS011;6800;50.940;6.940;2023-11-22T10:26:31;2.97;;;2.50;;
13455;SDS011;6800;50.940;6.940;2023-11-22T10:30:33;2.57;;;2.27;;
13455;SDS011;6800;50.940;6.940;2023-11-22T10:34:35;2.80;;;2.60;;
13455;SDS011;6800;50.940;6.940;2023-11-22T10:38:37;2.13;;;2.03;;
13455;SDS011;6800;50.940;6.940;2023-11-22T10:42:42;2.53;;;1.90;;
13455;SDS011;6800;50.940;6.940;2023-11-22T10:46:44;2.83;;;2.57;;
13455;SDS011;6800;50.940;6.940;2023-11-22T10:50:47;2.90;;;2.70;;
13455;SDS011;6800;50.940;6.940;2023-11-22T10:54:49;3.03;;;2.80;;
13455;SDS011;6800;50.940;6.940;2023-11-22T10:58:57;6.97;;;3.27;;
13455;SDS011;6800;50.940;6.940;2023-11-22T11:02:59;17.20;;;4.90;;
13455;SDS011;6800;50.940;6.940;2023-11-22T11:07:22;7.23;;;4.57;;
13455;SDS011;6800;50.940;6.940;2023-11-22T11:11:28;9.93;;;5.13;;
13455;SDS011;6800;50.940;6.940;2023-11-22T11:15:30;5.70;;;3.90;;
13455;SDS011;6800;50.940;6.940;2023-11-22T11:19:33;4.07;;;3.60;;
13455;SDS011;6800;50.940;6.940;2023-11-22T11:23:35;5.23;;;4.17;;
13455;SDS011;6800;50.940;6.940;2023-11-22T11:27:37;19.23;;;4.63;;
13455;SDS011;6800;50.940;6.940;2023-11-22T11:31:39;12.73;;;4.53;;
13455;SDS011;6800;50.940;6.940;2023-11-22T11:35:46;7.80;;;4.17;;
13455;SDS011;6800;50.940;6.940;2023-11-22T11:39:51;9.20;;;3.80;;
13455;SDS011;6800;50.940;6.940;2023-11-22T11:43:52;6.63;;;3.20;;
13455;SDS011;6800;50.940;6.940;2023-11-22T11:47:54;7.30;;;3.20;;
13455;SDS011;6800;50.940;6.940;2023-11-22T11:51:56;15.00;;;4.80;;
13455;SDS011;6800;50.940;6.940;2023-11-22T11:55:57;10.97;;;4.47;;
13455;SDS011;6800;50.940;6.940;2023-11-22T11:59:59;11.13;;;3.50;;
13455;SDS011;6800;50.940;6.940;2023-11-22T12:04:01;5.90;;;4.00;;
13455;SDS011;6800;50.940;6.940;2023-11-22T12:08:04;4.53;;;3.90;;
13455;SDS011;6800;50.940;6.940;2023-11-22T12:12:06;4.73;;;3.63;;
13455;SDS011;6800;50.940;6.940;2023-11-22T12:16:07;4.30;;;3.90;;
13455;SDS011;6800;50.940;6.940;2023-11-22T12:20:12;4.77;;;3.73;;
13455;SDS011;6800;50.940;6.940;2023-11-22T12:24:18;3.70;;;3.40;;
13455;SDS011;6800;50.940;6.940;2023-11-22T12:28:22;4.70;;;3.63;;
13455;SDS011;6800;50.940;6.940;2023-11-22T12:32:26;4.73;;;3.90;;
13455;SDS011;6800;50.940;6.940;2023-11-22T12:36:29;6.07;;;4.43;;
13455;SDS011;6800;50.940;6.940;2023-11-22T12:40:31;3.73;;;3.37;;
13455;SDS011;6800;50.940;6.940;2023-11-22T12:44:46;8.03;;;4.40;;
13455;SDS011;6800;50.940;6.940;2023-11-22T12:48:49;6.27;;;3.63;;
13455;SDS011;6800;50.940;6.940;2023-11-22T12:52:52;3.53;;;3.20;;
13455;SDS011;6800;50.940;6.940;2023-11-22T12:56:54;7.87;;;3.37;;
13455;SDS011;6800;50.940;6.940;2023-11-22T13:00:59;3.20;;;2.90;;
13455;SDS011;6800;50.940;6.940;2023-11-22T13:05:02;22.67;;;6.10;;
13455;SDS011;6800;50.940;6.940;2023-11-22T13:09:04;5.67;;;4.07;;
13455;SDS011;6800;50.940;6.940;2023-11-22T13:13:05;4.17;;;3.43;;
13455;SDS011;6800;50.940;6.940;2023-11-22T13:17:09;8.73;;;3.70;;
13455;SDS011;6800;50.940;6.940;2023-11-22T13:21:12;11.83;;;4.50;;
13455;SDS011;6800;50.940;6.940;2023-11-22T13:25:13;5.97;;;4.17;;
13455;SDS011;6800;50.940;6.940;2023-11-22T13:29:15;7.10;;;4.33;;
13455;SDS011;6800;50.940;6.940;2023-11-22T13:33:16;116.83;;;13.93;;
13455;SDS011;6800;50.940;6.940;2023-11-22T13:37:21;14.30;;;5.60;;
13455;SDS011;6800;50.940;6.940;2023-11-22T13:41:24;6.87;;;4.77;;
13455;SDS011;6800;50.940;6.940;2023-11-22T13:45:26;5.50;;;4.90;;
13455;SDS011;6800;50.940;6.940;2023-11-22T13:49:28;6.93;;;4.83;;
13455;SDS011;6800;50.940;6.940;2023-11-22T13:53:29;6.43;;;4.97;;
13455;SDS011;6800;50.940;6.940;2023-11-22T13:57:35;6.27;;;5.07;;
13455;SDS011;6800;50.940;6.940;2023-11-22T14:01:36;10.40;;;5.13;;
13455;SDS011;6800;50.940;6.940;2023-11-22T14:05:41;4.70;;;4.23;;
13455;SDS011;6800;50.940;6.940;2023-11-22T14:09:42;9.77;;;4.73;;
13455;SDS011;6800;50.940;6.940;2023-11-22T14:13:47;44.40;;;8.60;;
13455;SDS011;6800;50.940;6.940;2023-11-22T14:17:49;44.90;;;7.23;;
13455;SDS011;6800;50.940;6.940;2023-11-22T14:21:53;7.33;;;5.30;;
13455;SDS011;6800;50.940;6.940;2023-11-22T14:25:54;3.87;;;3.37;;
13455;SDS011;6800;50.940;6.940;2023-11-22T14:29:56;5.37;;;3.80;;
13455;SDS011;6800;50.940;6.940;2023-11-22T14:33:57;21.10;;;6.77;;
13455;SDS011;6800;50.940;6.940;2023-11-22T14:37:59;22.77;;;6.90;;
13455;SDS011;6800;50.940;6.940;2023-11-22T14:42:01;28.30;;;6.97;;
13455;SDS011;6800;50.940;6.940;2023-11-22T14:46:04;37.63;;;8.43;;
13455;SDS011;6800;50.940;6.940;2023-11-22T14:50:07;26.97;;;8.07;;
13455;SDS011;6800;50.940;6.940;2023-11-22T14:54:13;17.37;;;7.50;;
13455;SDS011;6800;50.940;6.940;2023-11-22T14:58:15;17.53;;;8.40;;
13455;SDS011;6800;50.940;6.940;2023-11-22T15:02:16;13.80;;;8.43;;
13455;SDS011;6800;50.940;6.940;2023-11-22T15:06:18;21.07;;;8.80;;
13455;SDS011;6800;50.940;6.940;2023-11-22T15:10:19;9.70;;;6.83;;
13455;SDS011;6800;50.940;6.940;2023-11-22T15:14:22;14.10;;;7.90;;
13455;SDS011;6800;50.940;6.940;2023-11-22T15:18:23;10.03;;;8.03;;
13455;SDS011;6800;50.940;6.940;2023-11-22T15:22:25;10.00;;;7.60;;
13455;SDS011;6800;50.940;6.940;2023-11-22T15:26:27;9.53;;;7.70;;
13455;SDS011;6800;50.940;6.940;2023-11-22T15:30:36;10.80;;;7.80;;
13455;SDS011;6800;50.940;6.940;2023-11-22T15:34:38;8.37;;;7.40;;
13455;SDS011;6800;50.940;6.940;2023-11-22T15:38:40;10.10;;;7.57;;
13455;SDS011;6800;50.940;6.940;2023-11-22T15:42:42;9.27;;;7.43;;
13455;SDS011;6800;50.940;6.940;2023-11-22T15:46:43;9.00;;;7.77;;
13455;SDS011;6800;50.940;6.940;2023-11-22T15:50:45;11.40;;;7.40;;
13455;SDS011;6800;50.940;6.940;2023-11-22T15:54:46;8.67;;;7.73;;
13455;SDS011;6800;50.940;6.940;2023-11-22T15:58:48;10.30;;;7.47;;
13455;SDS011;6800;50.940;6.940;2023-11-22T16:02:51;9.73;;;8.13;;
13455;SDS011;6800;50.940;6.940;2023-11-22T16:06:53;13.23;;;8.07;;
13455;SDS011;6800;50.940;6.940;2023-11-22T16:10:54;9.20;;;8.20;;
13455;SDS011;6800;50.940;6.940;2023-11-22T16:14:55;9.88;;;8.88;;
13455;SDS011;6800;50.940;6.940;2023-11-22T16:18:57;8.80;;;7.33;;
13455;SDS011;6800;50.940;6.940;2023-11-22T16:22:58;7.83;;;7.03;;
13455;SDS011;6800;50.940;6.940;2023-11-22T16:27:00;9.60;;;7.20;;
13455;SDS011;6800;50.940;6.940;2023-11-22T16:31:03;10.10;;;7.93;;
13455;SDS011;6800;50.940;6.940;2023-11-22T16:35:06;11.43;;;8.93;;
13455;SDS011;6800;50.940;6.940;2023-11-22T16:39:08;10.70;;;8.57;;
13455;SDS011;6800;50.940;6.940;2023-11-22T16:43:25;10.80;;;9.60;;
13455;SDS011;6800;50.940;6.940;2023-11-22T16:47:26;10.67;;;8.47;;
13455;SDS011;6800;50.940;6.940;2023-11-22T16:51:31;9.50;;;8.50;;
13455;SDS011;6800;50.940;6.940;2023-11-22T16:55:32;9.90;;;8.83;;
13455;SDS011;6800;50.940;6.940;2023-11-22T16:59:33;11.13;;;8.97;;
13455;SDS011;6800;50.940;6.940;2023-11-22T17:03:35;12.20;;;8.87;;
13455;SDS011;6800;50.940;6.940;2023-11-22T17:07:37;12.37;;;9.50;;
13455;SDS011;6800;50.940;6.940;2023-11-22T17:11:38;13.13;;;9.63;;
13455;SDS011;6800;50.940;6.940;2023-11-22T17:15:40;12.70;;;9.93;;
13455;SDS011;6800;50.940;6.940;2023-11-22T17:19:42;12.63;;;9.27;;
13455;SDS011;6800;50.940;6.940;2023-11-22T17:23:44;14.00;;;9.93;;
13455;SDS011;6800;50.940;6.940;2023-11-22T17:27:46;12.50;;;9.47;;
13455;SDS011;6800;50.940;6.940;2023-11-22T17:31:55;12.53;;;10.53;;
13455;SDS011;6800;50.940;6.940;2023-11-22T17:35:57;13.27;;;9.73;;
13455;SDS011;6800;50.940;6.940;2023-11-22T17:39:58;14.10;;;11.00;;
13455;SDS011;6800;50.940;6.940;2023-11-22T17:44:00;12.13;;;9.87;;
13455;SDS011;6800;50.940;6.940;2023-11-22T17:48:01;13.20;;;10.33;;
13455;SDS011;6800;50.940;6.940;2023-11-22T17:52:03;12.40;;;9.83;;
13455;SDS011;6800;50.940;6.940;2023-11-22T17:56:05;14.17;;;9.33;;
13455;SDS011;6800;50.940;6.940;2023-11-22T18:00:08;11.47;;;9.63;;
13455;SDS011;6800;50.940;6.940;2023-11-22T18:04:11;12.63;;;8.83;;
13455;SDS011;6800;50.940;6.940;2023-11-22T18:08:12;10.80;;;9.70;;
13455;SDS011;6800;50.940;6.940;2023-11-22T18:12:20;10.33;;;8.50;;
13455;SDS011;6800;50.940;6.940;2023-11-22T18:16:24;12.07;;;8.33;;
13455;SDS011;6800;50.940;6.940;2023-11-22T18:20:26;9.00;;;8.10;;
13455;SDS011;6800;50.940;6.940;2023-11-22T18:24:32;8.53;;;6.63;;
13455;SDS011;6800;50.940;6.940;2023-11-22T18:28:34;9.63;;;7.43;;
13455;SDS011;6800;50.940;6.940;2023-11-22T18:32:38;9.27;;;6.90;;
13455;SDS011;6800;50.940;6.940;2023-11-22T18:36:39;8.20;;;7.07;;
13455;SDS011;6800;50.940;6.940;2023-11-22T18:40:41;8.47;;;7.27;;
13455;SDS011;6800;50.940;6.940;2023-11-22T18:44:43;9.30;;;7.33;;
13455;SDS011;6800;50.940;6.940;2023-11-22T18:48:44;9.70;;;7.27;;
13455;SDS011;6800;50.940;6.940;2023-11-22T18:52:55;9.03;;;7.83;;
13455;SDS011;6800;50.940;6.940;2023-11-22T18:56:57;11.10;;;8.53;;
13455;SDS011;6800;50.940;6.940;2023-11-22T19:00:58;12.17;;;10.03;;
13455;SDS011;6800;50.940;6.940;2023-11-22T19:05:00;11.53;;;9.30;;
13455;SDS011;6800;50.940;6.940;2023-11-22T19:09:01;13.73;;;11.17;;
13455;SDS011;6800;50.940;6.940;2023-11-22T19:13:04;11.07;;;8.53;;
13455;SDS011;6800;50.940;6.940;2023-11-22T19:17:05;8.97;;;8.07;;
13455;SDS011;6800;50.940;6.940;2023-11-22T19:21:09;11.00;;;9.00;;
13455;SDS011;6800;50.940;6.940;2023-11-22T19:25:11;10.40;;;8.57;;
13455;SDS011;6800;50.940;6.940;2023-11-22T19:29:13;10.17;;;8.23;;
13455;SDS011;6800;50.940;6.940;2023-11-22T19:33:14;10.77;;;8.63;;
13455;SDS011;6800;50.940;6.940;2023-11-22T19:37:18;13.63;;;9.73;;
13455;SDS011;6800;50.940;6.940;2023-11-22T19:41:20;11.97;;;9.80;;
13455;SDS011;6800;50.940;6.940;2023-11-22T19:45:28;9.67;;;8.57;;
13455;SDS011;6800;50.940;6.940;2023-11-22T19:49:30;11.53;;;9.90;;
13455;SDS011;6800;50.940;6.940;2023-11-22T19:53:31;10.03;;;8.53;;
13455;SDS011;6800;50.940;6.940;2023-11-22T19:57:33;10.20;;;8.43;;
13455;SDS011;6800;50.940;6.940;2023-11-22T20:01:34;10.27;;;8.93;;
13455;SDS011;6800;50.940;6.940;2023-11-22T20:05:36;9.80;;;8.63;;
13455;SDS011;6800;50.940;6.940;2023-11-22T20:09:37;11.60;;;9.60;;
13455;SDS011;6800;50.940;6.940;2023-11-22T20:13:39;10.23;;;9.13;;
13455;SDS011;6800;50.940;6.940;2023-11-22T20:17:40;14.23;;;11.07;;
13455;SDS011;6800;50.940;6.940;2023-11-22T20:21:42;12.30;;;10.87;;
13455;SDS011;6800;50.940;6.940;2023-11-22T20:25:44;9.60;;;8.40;;
13455;SDS011;6800;50.940;6.940;2023-11-22T20:29:46;8.90;;;7.87;;
13455;SDS011;6800;50.940;6.940;2023-11-22T20:33:49;9.87;;;8.50;;
13455;SDS011;6800;50.940;6.940;2023-11-22T20:37:51;13.07;;;8.70;;
13455;SDS011;6800;50.940;6.940;2023-11-22T20:41:53;13.13;;;10.10;;
13455;SDS011;6800;50.940;6.940;2023-11-22T20:45:55;12.50;;;9.73;;
13455;SDS011;6800;50.940;6.940;2023-11-22T20:49:58;10.43;;;9.33;;
13455;SDS011;6800;50.940;6.940;2023-11-22T20:54:00;11.50;;;9.77;;
13455;SDS011;6800;50.940;6.940;2023-11-22T20:58:01;11.70;;;9.87;;
13455;SDS011;6800;50.940;6.940;2023-11-22T21:02:03;10.60;;;9.50;;
13455;SDS011;6800;50.940;6.940;2023-11-22T21:06:05;11.00;;;9.90;;
13455;SDS011;6800;50.940;6.940;2023-11-22T21:10:07;11.30;;;8.73;;
13455;SDS011;6800;50.940;6.940;2023-11-22T21:14:09;12.13;;;10.23;;
13455;SDS011;6800;50.940;6.940;2023-11-22T21:18:11;12.20;;;9.53;;
13455;SDS011;6800;50.940;6.940;2023-11-22T21:22:13;12.03;;;9.50;;
13455;SDS011;6800;50.940;6.940;2023-11-22T21:26:15;10.17;;;8.63;;
13455;SDS011;6800;50.940;6.940;2023-11-22T21:30:16;9.33;;;8.20;;
13455;SDS011;6800;50.940;6.940;2023-11-22T21:34:18;9.93;;;8.87;;
13455;SDS011;6800;50.940;6.940;2023-11-22T21:38:19;9.63;;;8.60;;
13455;SDS011;6800;50.940;6.940;2023-11-22T21:42:21;10.10;;;8.20;;
13455;SDS011;6800;50.940;6.940;2023-11-22T21:46:23;9.57;;;8.57;;
13455;SDS011;6800;50.940;6.940;2023-11-22T21:50:24;10.83;;;9.07;;
13455;SDS011;6800;50.940;6.940;2023-11-22T21:54:26;10.07;;;8.27;;
13455;SDS011;6800;50.940;6.940;2023-11-22T21:58:27;11.07;;;9.80;;
13455;SDS011;6800;50.940;6.940;2023-11-22T22:02:28;10.17;;;8.23;;
13455;SDS011;6800;50.940;6.940;2023-11-22T22:06:30;9.57;;;8.63;;
13455;SDS011;6800;50.940;6.940;2023-11-22T22:10:32;9.07;;;8.10;;
13455;SDS011;6800;50.940;6.940;2023-11-22T22:14:33;11.70;;;10.10;;
13455;SDS011;6800;50.940;6.940;2023-11-22T22:18:35;12.67;;;10.27;;
13455;SDS011;6800;50.940;6.940;2023-11-22T22:22:38;10.00;;;8.27;;
13455;SDS011;6800;50.940;6.940;2023-11-22T22:26:39;10.20;;;9.00;;
13455;SDS011;6800;50.940;6.940;2023-11-22T22:30:42;13.00;;;11.17;;
13455;SDS011;6800;50.940;6.940;2023-11-22T22:34:44;11.63;;;9.63;;
13455;SDS011;6800;50.940;6.940;2023-11-22T22:38:45;10.40;;;9.30;;
13455;SDS011;6800;50.940;6.940;2023-11-22T22:42:47;10.07;;;9.07;;
13455;SDS011;6800;50.940;6.940;2023-11-22T22:46:48;12.43;;;9.00;;
13455;SDS011;6800;50.940;6.940;2023-11-22T22:50:50;10.50;;;9.10;;
13455;SDS011;6800;50.940;6.940;2023-11-22T22:54:52;11.43;;;9.47;;
13455;SDS011;6800;50.940;6.940;2023-11-22T22:58:54;11.17;;;9.77;;
13455;SDS011;6800;50.940;6.940;2023-11-22T23:02:55;10.93;;;9.20;;
13455;SDS011;6800;50.940;6.940;2023-11-22T23:06:59;11.57;;;10.37;;
13455;SDS011;6800;50.940;6.940;2023-11-22T23:11:00;12.90;;;10.90;;
13455;SDS011;6800;50.940;6.940;2023-11-22T23:15:02;14.20;;;11.37;;
13455;SDS011;6800;50.940;6.940;2023-11-22T23:19:04;14.03;;;11.97;;
13455;SDS011;6800;50.940;6.940;2023-11-22T23:23:14;11.13;;;9.80;;
13455;SDS011;6800;50.940;6.940;2023-11-22T23:27:15;14.20;;;11.03;;
13455;SDS011;6800;50.940;6.940;2023-11-22T23:31:17;10.57;;;9.47;;
13455;SDS011;6800;50.940;6.940;2023-11-22T23:35:18;30.47;;;20.47;;
13455;SDS011;6800;50.940;6.940;2023-11-22T23:39:20;14.57;;;10.83;;
13455;SDS011;6800;50.940;6.940;2023-11-22T23:43:22;11.40;;;9.37;;
13455;SDS011;6800;50.940;6.940;2023-11-22T23:47:25;11.67;;;8.93;;
13455;SDS011;6800;50.940;6.940;2023-11-22T23:51:27;17.67;;;12.93;;
13455;SDS011;6800;50.940;6.940;2023-11-22T23:55:29;15.87;;;12.20;;
13455;SDS011;6800;50.940;6.940;2023-11-22T23:59:31;11.93;;;9.90;;
